Airfield :
LOGIN :

Register | Disclaimer

   EN    FR    IT 

 










Legend :    VFR   Marginal VFR   IFR   Intensive IFR   Very Intensive IFR
Visi :
Ceiling :
>= 8 km
>= 3000ft
5 to 8 km
1000 to 3000 ft
1500m to 5 km
500 to 1000 ft
800 to 1500m
200 to 500 ft
< 800m
< 200 ft
Symbols :   Thunderstorms  Fog  Heavy snow  Heavy precipitations  Wind > 20 kt
SIGMETs :     Misc.  Thunderstorms  Icing  Turbulence  Mountain Waves  Volcanic Ashes







- Airport Elevation : 184 ft
- IATA code : BRU


EBBR - Bruxelles

CURRENT METAR :
  • 181550Z 30007KT 9999 SCT037 07/01 Q1002 NOSIG

EXPIRED METARs :
  • 181520Z 28013KT 9999 BKN036 07/00 Q1002 NOSIG
  • 181450Z 26013KT CAVOK 07/01 Q1002 NOSIG
  • 181420Z 28013KT 9999 FEW038 07/M00 Q1002 NOSIG
  • 181350Z 27016KT 9999 FEW032 BKN042 08/01 Q1002 NOSIG
  • 181320Z 28017KT 9999 BKN031 07/01 Q1002 NOSIG
  • 181250Z 28018KT 9999 BKN034 07/00 Q1002 NOSIG

TAF TAF EBBR
Valid from the 18 at 12:00 until the 19 at 18:00 UTC


181103Z 1812/1918 27020G35KT 9999 SCT015 SCT040
BECMG 1813/1815 26012KT
TEMPO 1815/1905 29015G25KT 3500 SHRA BKN008 BKN012CB
PROB30 1818/1905 2000 SHRAGS
No reported NOTAMs for that airfield.



MET'MAP, your aeronautical weather chart ! - Copyright ORBIFLY December 2007 - Disclaimer

ORBIFLY MET'MAP TEAM :

Programming & Development : Alexandra Zaïnal
Concept & Development : Baudouin d'Aumeries
Co-Development & Prog : Marc-Olivier Méhu
Technical & hardware support : Manuel Goepfert

Contact : metmap@orbifly.com




SOURCES & CREDITS :

   NOAA